Search for airport 
image banner adimage banner adimage banner ad
image banner ad

57CA - Merle Norman Cosmetics Bldg 3 Heliport

Located in Los Angeles, United States

ICAO - 57CA, IATA -

Data provided by Airmate  

General information

Coordinates: N33°45'56" W117°44'39"
Elevation is 1286 feet MSL.
 
View others Airports in California

Operational data

Special qualification required
Current time UTC:
Current local time:
METAR: KSNA 231353Z 23003KT 8SM FEW013 FEW160 19/16 A2991 RMK AO2 SLP128 T01890156
TAF: KSNA 231125Z 2312/2412 20004KT P6SM FEW150 FM231900 24008KT P6SM SCT100 FM240200 22004KT P6SM SCT100 FM241100 VRB03KT 5SM BR BKN006
View NOTAMs / SUP AIP / TFR affecting this airport [VIEW]
Communications frequencies: [VIEW]

Runways:

Airport contact information

Address: Los Angeles United States

Satellite view of 57CA